Portada
METAR-TAF:

METAR-TAF

Aeroports :

Txità, Rússia

latitud: 52-05N, longitud: 113-29E, altitud: 685 m

Observació

L'informe es va fer fa 39 minuts, a les 01:00 UTC
Vent 2 kt amb direcció variable
Temperatura -4°C
Humitat 58%
Pressió 1021 hPa
Visibilitat 10 km o més

METAR: UIAA 220100Z VRB01MPS 9999 NSC M04/M11 Q1021 R29/70D NOSIG RMK QFE707/0943

Hora: 10:39 (01:39 UTC)

Pronòstic

L'informe es va fer fa 2 hores i 39 minuts, a les 23:00 UTC
Pronòstic vàlid del 22 a les 00 UTC al 22 a les 24 UTC
Vent 6 kt del Sud-Oest amb ràfegues de 16 kt
Visibilitat 10 km o més
Temporalment
l' 22 a les 00 UTC al 22 a les 09 UTC
Vent 10 kt del Oest/Nord-Oest amb ràfegues de 23 kt

TAF: UIAA 212300Z 2200/2224 22003G08MPS 9999 NSC TEMPO 2200/2209 29005G12MPS

Observacions i pronòstics meteorològics de més de 4000 aeroports (METAR i TAF).

Les estacions disponibles són els punts grocs i vermells al mapa.

Posi el ratolí al punt desitjat per veure el nom de l'estació.

Feu clic per veure les observacions i els pronòstics meteorològics.

Per canviar el mapa: feu clic els botons verds amb una creu de color negre per apropar; al botó verd amb un guió per allunyar la imatge; o en les fletxes verdes per a mapes adjacents.


METAR-TAF: